createdAt,value
2019-05-11T00:02:09.674Z,73.33
2019-05-11T00:04:39.657Z,72.96
2019-05-11T00:07:09.635Z,72.85
2019-05-11T00:09:55.670Z,72.70
2019-05-11T00:12:11.372Z,74.00
2019-05-11T00:14:42.788Z,75.50
2019-05-11T00:17:12.825Z,76.42
2019-05-11T00:19:42.899Z,76.18
2019-05-11T00:22:12.915Z,74.67
2019-05-11T00:24:42.960Z,74.51
2019-05-11T00:27:12.921Z,74.36
2019-05-11T00:29:43.024Z,74.01
2019-05-11T00:32:13.116Z,75.16
2019-05-11T00:34:43.230Z,75.32
2019-05-11T00:37:13.271Z,74.94
2019-05-11T00:39:43.261Z,74.86
2019-05-11T00:42:13.209Z,74.74
2019-05-11T00:44:47.055Z,74.49
2019-05-11T00:47:15.140Z,74.03
2019-05-11T00:49:45.273Z,73.98
2019-05-11T00:52:15.249Z,73.74
2019-05-11T00:54:45.318Z,73.85
2019-05-11T00:57:15.283Z,73.69
2019-05-11T00:59:45.258Z,73.65
2019-05-11T01:02:15.250Z,73.54
2019-05-11T01:04:45.326Z,73.43
2019-05-11T01:07:15.240Z,73.45
2019-05-11T01:09:45.214Z,73.05
2019-05-11T01:12:15.257Z,73.60
2019-05-11T01:14:45.248Z,73.52
2019-05-11T01:17:15.273Z,73.89
2019-05-11T01:19:45.289Z,73.25
2019-05-11T01:22:15.269Z,73.98
2019-05-11T01:24:45.323Z,75.31
2019-05-11T01:27:15.279Z,73.90
2019-05-11T01:29:45.362Z,74.07
2019-05-11T01:32:15.314Z,74.20
2019-05-11T01:34:45.309Z,73.80
2019-05-11T01:37:15.337Z,74.43
2019-05-11T01:39:45.329Z,74.03
2019-05-11T01:42:15.349Z,73.95
2019-05-11T01:44:45.343Z,73.66
2019-05-11T01:47:15.315Z,74.06
2019-05-11T01:49:45.313Z,73.82
2019-05-11T01:52:15.278Z,73.91
2019-05-11T01:54:45.332Z,73.83
2019-05-11T01:57:15.270Z,73.83
2019-05-11T01:59:45.238Z,73.35
2019-05-11T02:02:15.180Z,72.85
2019-05-11T02:04:45.191Z,73.04
2019-05-11T02:07:15.252Z,72.94
2019-05-11T02:09:45.221Z,73.72
2019-05-11T02:12:15.174Z,74.14
2019-05-11T02:14:45.314Z,74.86
2019-05-11T02:17:15.275Z,74.16
2019-05-11T02:19:45.270Z,73.96
2019-05-11T02:22:15.474Z,72.96
2019-05-11T02:24:46.566Z,73.10
2019-05-11T02:27:16.535Z,73.53
2019-05-11T02:29:46.499Z,73.39
2019-05-11T02:32:16.456Z,73.44
2019-05-11T02:34:46.491Z,72.94
2019-05-11T02:37:16.473Z,73.12
2019-05-11T02:39:46.418Z,72.91
2019-05-11T02:42:16.377Z,73.46
2019-05-11T02:44:46.384Z,76.64
2019-05-11T02:47:16.353Z,77.26
2019-05-11T02:49:46.282Z,76.79
2019-05-11T02:52:16.324Z,77.60
2019-05-11T02:54:46.445Z,77.05
2019-05-11T02:57:16.429Z,75.20
2019-05-11T02:59:46.867Z,74.54
2019-05-11T03:02:16.848Z,74.30
2019-05-11T03:04:46.784Z,74.15
2019-05-11T03:07:16.760Z,74.01
2019-05-11T03:09:46.690Z,75.04
2019-05-11T03:12:16.648Z,76.73
2019-05-11T03:14:46.600Z,75.42
2019-05-11T03:17:23.334Z,74.53
2019-05-11T03:19:53.295Z,74.93
2019-05-11T03:22:23.267Z,75.26
2019-05-11T03:24:53.213Z,77.19
2019-05-11T03:27:23.180Z,77.46
2019-05-11T03:29:53.299Z,76.16
2019-05-11T03:32:23.280Z,75.76
2019-05-11T03:34:53.203Z,75.24
2019-05-11T03:37:23.265Z,75.50
2019-05-11T03:39:53.223Z,75.27
2019-05-11T03:42:23.200Z,75.04
2019-05-11T03:44:53.148Z,74.81
2019-05-11T03:47:23.123Z,74.57
2019-05-11T03:49:53.067Z,75.80
2019-05-11T03:52:23.029Z,77.40
2019-05-11T03:54:52.992Z,76.28
2019-05-11T03:57:22.946Z,75.39
2019-05-11T03:59:52.896Z,76.51
2019-05-11T04:02:22.913Z,75.25
2019-05-11T04:04:53.166Z,75.80
2019-05-11T04:07:23.219Z,76.43
2019-05-11T04:09:53.192Z,75.49
2019-05-11T04:12:33.975Z,78.26
2019-05-11T04:14:54.806Z,80.23
2019-05-11T04:17:24.768Z,79.42
2019-05-11T04:19:54.746Z,78.62
2019-05-11T04:22:24.707Z,79.84
2019-05-11T04:24:54.758Z,76.84
2019-05-11T04:27:24.732Z,76.13
2019-05-11T04:29:54.680Z,76.09
2019-05-11T04:32:24.652Z,77.16
2019-05-11T04:34:54.596Z,77.23
2019-05-11T04:37:24.594Z,78.68
2019-05-11T04:39:54.553Z,80.02
2019-05-11T04:42:24.516Z,80.48
2019-05-11T04:44:54.464Z,81.94
2019-05-11T04:47:24.438Z,82.89
2019-05-11T04:49:54.443Z,81.45
2019-05-11T04:52:24.425Z,81.90
2019-05-11T04:54:54.379Z,81.24
2019-05-11T04:57:24.360Z,82.99
2019-05-11T04:59:54.365Z,80.58
2019-05-11T05:02:27.157Z,83.22
2019-05-11T05:04:55.987Z,85.44
2019-05-11T05:07:25.967Z,85.96
2019-05-11T05:09:55.933Z,85.35
2019-05-11T05:12:25.933Z,83.41
2019-05-11T05:14:55.875Z,83.19
2019-05-11T05:17:25.856Z,84.57
2019-05-11T05:19:55.817Z,85.45
2019-05-11T05:22:27.911Z,84.32
2019-05-11T05:24:57.473Z,85.95
2019-05-11T05:27:27.518Z,83.79
2019-05-11T05:29:57.552Z,85.53
2019-05-11T05:32:27.500Z,86.02
2019-05-11T05:34:57.477Z,85.58
2019-05-11T05:37:27.428Z,84.99
2019-05-11T05:39:57.511Z,86.67
2019-05-11T05:42:27.487Z,85.33
2019-05-11T05:44:57.469Z,85.21
2019-05-11T05:47:27.551Z,84.67
2019-05-11T05:49:57.501Z,86.15
2019-05-11T05:52:27.463Z,84.23
2019-05-11T05:54:57.457Z,84.40
2019-05-11T05:57:27.448Z,85.57
2019-05-11T05:59:57.438Z,85.02
2019-05-11T06:02:27.389Z,85.18
2019-05-11T06:04:57.368Z,83.53
2019-05-11T06:07:27.379Z,83.35
2019-05-11T06:09:57.345Z,84.32
2019-05-11T06:12:27.441Z,86.13
2019-05-11T06:14:57.461Z,85.93
2019-05-11T06:17:27.347Z,85.93
2019-05-11T06:19:57.456Z,85.36
2019-05-11T06:22:27.490Z,83.93
2019-05-11T06:24:57.515Z,83.03
2019-05-11T06:27:27.538Z,84.57
2019-05-11T06:29:57.522Z,85.27
2019-05-11T06:32:27.481Z,85.61
2019-05-11T06:34:57.466Z,85.33
2019-05-11T06:37:27.417Z,83.19
2019-05-11T06:39:57.431Z,83.45
2019-05-11T06:42:27.462Z,85.03
2019-05-11T06:44:57.538Z,83.69
2019-05-11T06:47:27.642Z,84.00
2019-05-11T06:49:57.683Z,83.72
2019-05-11T06:52:28.052Z,83.21
2019-05-11T06:54:58.068Z,84.51
2019-05-11T06:57:28.113Z,84.04
2019-05-11T06:59:58.127Z,83.75
2019-05-11T07:02:28.122Z,84.50
2019-05-11T07:04:58.146Z,84.09
2019-05-11T07:07:28.128Z,84.58
2019-05-11T07:09:58.142Z,84.31
2019-05-11T07:12:28.132Z,84.19
2019-05-11T07:14:58.139Z,83.74
2019-05-11T07:17:28.122Z,83.01
2019-05-11T07:19:58.354Z,83.01
2019-05-11T07:22:28.343Z,82.62
2019-05-11T07:24:58.334Z,82.79
2019-05-11T07:27:28.294Z,81.62
2019-05-11T07:29:58.285Z,81.24
2019-05-11T07:32:29.330Z,81.87
2019-05-11T07:34:59.504Z,82.11
2019-05-11T07:37:29.462Z,81.65
2019-05-11T07:39:59.550Z,80.93
2019-05-11T07:42:29.558Z,80.42
2019-05-11T07:44:59.644Z,80.94
2019-05-11T07:47:29.614Z,79.54
2019-05-11T07:49:59.596Z,78.58
2019-05-11T07:52:29.566Z,77.00
2019-05-11T07:54:59.613Z,75.07
2019-05-11T07:57:29.646Z,74.46
2019-05-11T07:59:59.624Z,74.67
2019-05-11T08:02:32.351Z,73.24
2019-05-11T08:05:03.222Z,73.17
2019-05-11T08:07:33.211Z,72.30
2019-05-11T08:10:03.250Z,72.69
2019-05-11T08:12:33.214Z,70.70
2019-05-11T08:15:11.664Z,71.67
2019-05-11T08:17:34.984Z,71.29
2019-05-11T08:20:05.309Z,71.32
2019-05-11T08:22:37.560Z,71.10
2019-05-11T08:25:09.219Z,69.92
2019-05-11T08:27:38.802Z,69.92
2019-05-11T08:30:10.737Z,67.36
2019-05-11T08:32:40.765Z,67.36
2019-05-11T08:35:11.080Z,66.28
2019-05-11T08:37:41.074Z,65.94
2019-05-11T08:40:11.166Z,65.81
2019-05-11T08:42:41.152Z,66.02
2019-05-11T08:45:20.027Z,65.78
2019-05-11T08:47:42.828Z,65.96
2019-05-11T08:50:15.275Z,65.09
2019-05-11T08:52:44.490Z,65.09
2019-05-11T08:55:14.438Z,64.62
2019-05-11T08:57:44.432Z,63.70
2019-05-11T09:00:15.134Z,62.55
2019-05-11T09:02:47.669Z,62.55
2019-05-11T09:05:18.663Z,62.84
2019-05-11T09:07:48.645Z,64.06
2019-05-11T09:10:18.859Z,62.44
2019-05-11T09:12:49.091Z,63.46
2019-05-11T09:15:32.733Z,63.75
2019-05-11T09:17:50.761Z,62.96
2019-05-11T09:20:20.776Z,61.88
2019-05-11T09:22:50.769Z,62.18
2019-05-11T09:25:20.765Z,61.04
2019-05-11T09:27:50.766Z,62.99
2019-05-11T09:30:20.768Z,62.55
2019-05-11T09:32:50.748Z,61.20
2019-05-11T09:35:20.749Z,61.31
2019-05-11T09:37:50.734Z,61.07
2019-05-11T09:40:20.717Z,61.18
2019-05-11T09:42:50.711Z,59.94
2019-05-11T09:45:20.697Z,60.32
2019-05-11T09:47:50.721Z,61.69
2019-05-11T09:50:20.703Z,61.56
2019-05-11T09:52:50.691Z,61.45
2019-05-11T09:55:20.770Z,61.14
2019-05-11T09:57:50.755Z,61.87
2019-05-11T10:00:23.008Z,62.12
2019-05-11T10:02:53.041Z,61.39
2019-05-11T10:05:23.093Z,60.75
2019-05-11T10:07:53.097Z,60.89
2019-05-11T10:10:23.101Z,61.45
2019-05-11T10:12:53.122Z,60.90
2019-05-11T10:15:23.138Z,60.44
2019-05-11T10:17:53.109Z,61.13
2019-05-11T10:20:23.139Z,61.41
2019-05-11T10:22:53.109Z,60.12
2019-05-11T10:25:23.125Z,59.64
2019-05-11T10:27:53.117Z,59.09
2019-05-11T10:30:23.223Z,58.60
2019-05-11T10:32:53.177Z,58.45
2019-05-11T10:35:23.180Z,58.08
2019-05-11T10:37:53.165Z,58.09
2019-05-11T10:40:23.181Z,58.08
2019-05-11T10:42:53.167Z,58.28
2019-05-11T10:45:23.172Z,58.79
2019-05-11T10:47:57.797Z,58.55
2019-05-11T10:50:25.635Z,58.64
2019-05-11T10:52:55.609Z,58.31
2019-05-11T10:55:27.878Z,58.48
2019-05-11T10:57:58.034Z,57.86
2019-05-11T11:00:28.457Z,58.56
2019-05-11T11:02:58.503Z,58.21
2019-05-11T11:05:28.548Z,57.10
2019-05-11T11:07:58.963Z,57.26
2019-05-11T11:10:29.104Z,57.24
2019-05-11T11:12:59.235Z,58.90
2019-05-11T11:15:29.298Z,55.31
2019-05-11T11:17:59.293Z,55.73
2019-05-11T11:20:29.317Z,56.07
2019-05-11T11:22:59.701Z,54.84
2019-05-11T11:25:29.799Z,55.54
2019-05-11T11:27:59.790Z,53.81
2019-05-11T11:30:29.857Z,53.87
2019-05-11T11:32:59.820Z,54.08
2019-05-11T11:35:29.812Z,51.81
2019-05-11T11:37:59.763Z,52.44
2019-05-11T11:40:29.765Z,52.12
2019-05-11T11:42:59.747Z,51.29
2019-05-11T11:45:29.835Z,50.19
2019-05-11T11:47:59.825Z,51.61
2019-05-11T11:50:29.816Z,51.10
2019-05-11T11:52:59.797Z,51.92
2019-05-11T11:55:29.794Z,51.59
2019-05-11T11:57:59.877Z,51.00
2019-05-11T12:00:29.882Z,50.12
2019-05-11T12:03:02.181Z,51.28
2019-05-11T12:05:32.136Z,50.21
2019-05-11T12:08:02.147Z,50.16
2019-05-11T12:10:34.901Z,50.74
2019-05-11T12:13:04.907Z,49.74
2019-05-11T12:15:34.890Z,49.41
2019-05-11T12:18:04.895Z,51.47
2019-05-11T12:20:34.888Z,51.05
2019-05-11T12:23:04.877Z,49.73
2019-05-11T12:25:38.247Z,49.79
2019-05-11T12:28:12.895Z,49.65
2019-05-11T12:30:42.862Z,48.58
2019-05-11T12:33:13.329Z,49.69
2019-05-11T12:35:43.814Z,50.03
2019-05-11T12:38:13.846Z,49.64
2019-05-11T12:40:43.823Z,48.67
2019-05-11T12:43:18.534Z,47.95
2019-05-11T12:45:48.982Z,48.01
2019-05-11T12:48:18.991Z,48.59
2019-05-11T12:50:48.958Z,49.59
2019-05-11T12:53:18.978Z,50.31
2019-05-11T12:55:48.958Z,50.69
2019-05-11T12:58:18.968Z,50.10
2019-05-11T13:00:48.956Z,50.41
2019-05-11T13:03:19.087Z,49.08
2019-05-11T13:05:49.126Z,51.45
2019-05-11T13:08:19.134Z,51.24
2019-05-11T13:10:49.096Z,51.41
2019-05-11T13:13:19.073Z,51.71
2019-05-11T13:15:49.037Z,51.65
2019-05-11T13:18:19.051Z,51.49
2019-05-11T13:20:49.048Z,51.02
2019-05-11T13:23:19.020Z,50.61
2019-05-11T13:25:48.970Z,50.18
2019-05-11T13:28:18.942Z,50.34
2019-05-11T13:30:49.006Z,50.94
2019-05-11T13:33:19.310Z,51.86
2019-05-11T13:35:49.331Z,51.77
2019-05-11T13:38:19.326Z,50.30
2019-05-11T13:40:49.291Z,50.27
2019-05-11T13:43:19.309Z,50.00
2019-05-11T13:45:49.336Z,50.90
2019-05-11T13:48:19.340Z,50.53
2019-05-11T13:50:49.321Z,49.99
2019-05-11T13:53:19.303Z,49.82
2019-05-11T13:55:49.305Z,50.77
2019-05-11T13:58:20.026Z,50.98
2019-05-11T14:00:50.222Z,50.47
2019-05-11T14:03:20.232Z,50.78
2019-05-11T14:05:50.185Z,49.62
2019-05-11T14:08:20.175Z,50.27
2019-05-11T14:10:50.149Z,50.43
2019-05-11T14:13:20.233Z,50.63
2019-05-11T14:15:50.284Z,50.86
2019-05-11T14:18:20.317Z,51.02
2019-05-11T14:20:50.375Z,50.63
2019-05-11T14:23:20.474Z,50.73
2019-05-11T14:25:50.445Z,51.25
2019-05-11T14:28:20.542Z,50.20
2019-05-11T14:30:50.507Z,50.19
2019-05-11T14:33:20.506Z,51.11
2019-05-11T14:35:50.477Z,50.62
2019-05-11T14:38:20.473Z,52.01
2019-05-11T14:40:50.455Z,52.13
2019-05-11T14:43:20.526Z,51.87
2019-05-11T14:45:50.490Z,51.46
2019-05-11T14:48:26.660Z,51.90
2019-05-11T14:50:52.196Z,52.07
2019-05-11T14:53:22.195Z,50.43
2019-05-11T14:55:52.182Z,51.29
2019-05-11T14:58:22.187Z,51.43
2019-05-11T15:00:52.169Z,51.55
2019-05-11T15:03:22.225Z,51.64
2019-05-11T15:05:52.225Z,52.52
2019-05-11T15:08:22.346Z,51.60
2019-05-11T15:10:52.317Z,51.71
2019-05-11T15:13:22.333Z,52.29
2019-05-11T15:15:52.314Z,52.27
2019-05-11T15:18:35.278Z,52.37
2019-05-11T15:20:54.013Z,51.08
2019-05-11T15:23:24.039Z,51.19
2019-05-11T15:25:54.055Z,50.74
2019-05-11T15:28:24.150Z,50.07
2019-05-11T15:30:54.110Z,50.68
2019-05-11T15:33:24.153Z,49.90
2019-05-11T15:35:54.139Z,49.44
2019-05-11T15:38:24.163Z,49.98
2019-05-11T15:40:54.151Z,48.67
2019-05-11T15:43:24.157Z,49.06
2019-05-11T15:45:54.147Z,48.86
2019-05-11T15:48:24.229Z,47.85
2019-05-11T15:50:54.268Z,47.88
2019-05-11T15:53:24.263Z,47.20
2019-05-11T15:55:54.334Z,47.42
2019-05-11T15:58:24.441Z,47.81
2019-05-11T16:00:55.819Z,47.39
2019-05-11T16:03:26.061Z,47.72
2019-05-11T16:05:58.237Z,47.27
2019-05-11T16:08:30.062Z,46.44
2019-05-11T16:11:00.348Z,47.07
2019-05-11T16:13:31.380Z,46.84
2019-05-11T16:16:02.205Z,47.21
2019-05-11T16:18:32.557Z,46.26
2019-05-11T16:21:03.263Z,46.56
2019-05-11T16:23:33.385Z,46.67
2019-05-11T16:26:03.679Z,46.20
2019-05-11T16:28:34.529Z,46.58
2019-05-11T16:31:04.513Z,46.45
2019-05-11T16:33:34.634Z,44.99
2019-05-11T16:36:04.855Z,45.19
2019-05-11T16:38:37.803Z,45.22
2019-05-11T16:41:09.122Z,44.84
2019-05-11T16:43:40.498Z,45.07
2019-05-11T16:46:11.002Z,45.20
2019-05-11T16:48:41.091Z,44.69
2019-05-11T16:51:11.155Z,44.98
2019-05-11T16:53:43.173Z,44.51
2019-05-11T16:56:13.516Z,44.37
2019-05-11T16:58:43.784Z,43.96
2019-05-11T17:01:13.821Z,44.22
2019-05-11T17:03:43.820Z,43.60
2019-05-11T17:06:13.831Z,44.12
2019-05-11T17:08:43.845Z,44.45
2019-05-11T17:11:13.865Z,45.82
2019-05-11T17:13:43.840Z,46.15
2019-05-11T17:16:13.848Z,46.28
2019-05-11T17:18:43.873Z,46.67
2019-05-11T17:21:13.932Z,47.25
2019-05-11T17:23:43.907Z,47.45
2019-05-11T17:26:13.918Z,47.61
2019-05-11T17:28:44.113Z,48.05
2019-05-11T17:31:14.143Z,48.44
2019-05-11T17:33:44.160Z,48.25
2019-05-11T17:36:14.204Z,48.06
2019-05-11T17:38:44.197Z,48.15
2019-05-11T17:41:14.204Z,48.32
2019-05-11T17:43:44.190Z,48.13
2019-05-11T17:46:14.223Z,47.18
2019-05-11T17:48:44.230Z,47.16
2019-05-11T17:51:21.236Z,46.53
2019-05-11T17:53:48.110Z,46.23
2019-05-11T17:56:17.767Z,46.02
2019-05-11T17:58:48.353Z,46.23
2019-05-11T18:01:18.733Z,46.10
2019-05-11T18:03:49.095Z,46.54
2019-05-11T18:06:19.114Z,46.45
2019-05-11T18:08:49.072Z,46.41
2019-05-11T18:11:19.160Z,46.86
2019-05-11T18:13:49.189Z,46.80
2019-05-11T18:16:19.260Z,47.15
2019-05-11T18:18:49.335Z,47.11
2019-05-11T18:21:19.358Z,47.02
2019-05-11T18:23:49.382Z,47.14
2019-05-11T18:26:19.390Z,47.00
2019-05-11T18:28:49.446Z,47.63
2019-05-11T18:31:19.462Z,47.56
2019-05-11T18:33:49.479Z,47.91
2019-05-11T18:36:19.446Z,48.07
2019-05-11T18:38:49.449Z,48.27
2019-05-11T18:41:19.534Z,48.54
2019-05-11T18:43:49.541Z,48.65
2019-05-11T18:46:19.531Z,48.49
2019-05-11T18:48:49.530Z,49.04
2019-05-11T18:51:19.563Z,48.73
2019-05-11T18:53:49.604Z,48.82
2019-05-11T18:56:19.571Z,48.57
2019-05-11T18:58:49.615Z,49.46
2019-05-11T19:01:19.586Z,49.38
2019-05-11T19:03:49.715Z,50.39
2019-05-11T19:06:19.683Z,50.33
2019-05-11T19:08:49.758Z,50.33
2019-05-11T19:11:19.746Z,49.75
2019-05-11T19:13:49.824Z,51.19
2019-05-11T19:16:19.816Z,51.58
2019-05-11T19:18:49.911Z,52.06
2019-05-11T19:21:19.956Z,52.43
2019-05-11T19:23:50.080Z,52.74
2019-05-11T19:26:20.115Z,53.03
2019-05-11T19:28:50.195Z,52.83
2019-05-11T19:31:20.223Z,53.21
2019-05-11T19:33:50.239Z,53.34
2019-05-11T19:36:20.300Z,53.60
2019-05-11T19:38:50.363Z,52.57
2019-05-11T19:41:20.427Z,53.55
2019-05-11T19:43:50.530Z,53.65
2019-05-11T19:46:20.608Z,53.77
2019-05-11T19:48:50.684Z,54.04
2019-05-11T19:51:20.716Z,53.19
2019-05-11T19:53:50.711Z,53.22
2019-05-11T19:56:20.694Z,53.01
2019-05-11T19:58:50.705Z,53.74
2019-05-11T20:01:20.683Z,53.00
2019-05-11T20:03:50.788Z,53.71
2019-05-11T20:06:20.849Z,52.66
2019-05-11T20:08:50.883Z,53.41
2019-05-11T20:11:20.865Z,53.82
2019-05-11T20:13:50.908Z,54.40
2019-05-11T20:16:20.887Z,54.82
2019-05-11T20:18:50.904Z,55.17
2019-05-11T20:21:23.111Z,54.81
2019-05-11T20:23:53.337Z,54.31
2019-05-11T20:26:23.321Z,54.87
2019-05-11T20:28:53.341Z,56.78
2019-05-11T20:31:23.348Z,57.80
2019-05-11T20:33:53.330Z,58.62
2019-05-11T20:36:23.355Z,59.96
2019-05-11T20:38:53.395Z,59.82
2019-05-11T20:41:23.396Z,61.45
2019-05-11T20:43:53.417Z,63.68
2019-05-11T20:46:30.887Z,64.80
2019-05-11T20:49:01.369Z,66.17
2019-05-11T20:51:36.669Z,67.65
2019-05-11T20:54:03.046Z,67.45
2019-05-11T20:56:33.111Z,69.40
2019-05-11T20:59:03.132Z,69.40
2019-05-11T21:01:33.231Z,68.47
2019-05-11T21:04:03.255Z,69.88
2019-05-11T21:06:33.239Z,68.68
2019-05-11T21:09:03.470Z,68.58
2019-05-11T21:11:33.443Z,70.32
2019-05-11T21:14:03.485Z,71.61
2019-05-11T21:16:33.968Z,69.75
2019-05-11T21:19:03.994Z,72.51
2019-05-11T21:21:46.281Z,70.88
2019-05-11T21:24:08.366Z,72.21
2019-05-11T21:26:38.545Z,70.67
2019-05-11T21:29:08.818Z,72.15
2019-05-11T21:31:40.733Z,72.15
2019-05-11T21:34:10.614Z,71.48
2019-05-11T21:36:40.635Z,73.35
2019-05-11T21:39:10.637Z,71.78
2019-05-11T21:41:40.711Z,71.31
2019-05-11T21:44:10.761Z,74.09
2019-05-11T21:46:40.869Z,73.18
2019-05-11T21:49:10.872Z,73.96
2019-05-11T21:51:40.964Z,71.24
2019-05-11T21:54:11.044Z,73.21
2019-05-11T21:56:41.050Z,74.42
2019-05-11T21:59:10.998Z,73.81
2019-05-11T22:01:41.274Z,74.61
2019-05-11T22:04:11.482Z,74.61
2019-05-11T22:06:41.450Z,73.39
2019-05-11T22:09:11.413Z,72.93
2019-05-11T22:11:41.392Z,74.32
2019-05-11T22:14:11.361Z,72.57
2019-05-11T22:16:41.428Z,72.50
2019-05-11T22:19:11.383Z,71.83
2019-05-11T22:21:41.422Z,71.30
2019-05-11T22:24:11.442Z,71.51
2019-05-11T22:26:41.521Z,71.47
2019-05-11T22:29:11.510Z,73.55
2019-05-11T22:31:42.121Z,73.32
2019-05-11T22:34:12.304Z,73.46
2019-05-11T22:36:42.357Z,72.63
2019-05-11T22:39:12.338Z,71.32
2019-05-11T22:41:42.397Z,73.29
2019-05-11T22:44:12.388Z,70.52
2019-05-11T22:46:42.394Z,72.12
2019-05-11T22:49:12.373Z,72.69
2019-05-11T22:51:42.380Z,73.54
2019-05-11T22:54:12.352Z,73.94
2019-05-11T22:56:42.400Z,70.95
2019-05-11T22:59:12.396Z,71.78
2019-05-11T23:01:42.456Z,72.67
2019-05-11T23:04:12.415Z,73.49
2019-05-11T23:06:42.420Z,73.75
2019-05-11T23:09:12.386Z,74.25
2019-05-11T23:11:42.400Z,74.12
2019-05-11T23:14:12.374Z,72.72
2019-05-11T23:16:42.379Z,73.56
2019-05-11T23:19:12.332Z,75.16
2019-05-11T23:21:42.372Z,72.70
2019-05-11T23:24:12.323Z,74.57
2019-05-11T23:26:42.540Z,74.03
2019-05-11T23:29:12.512Z,74.17
2019-05-11T23:31:42.488Z,74.10
2019-05-11T23:34:12.452Z,74.92
2019-05-11T23:36:42.450Z,73.83
2019-05-11T23:39:12.427Z,73.75
2019-05-11T23:41:42.454Z,73.35
2019-05-11T23:44:12.403Z,74.87
2019-05-11T23:46:42.366Z,73.65
2019-05-11T23:49:12.324Z,73.45
2019-05-11T23:51:42.277Z,73.18
2019-05-11T23:54:12.348Z,76.01
2019-05-11T23:56:42.332Z,75.29
2019-05-11T23:59:12.404Z,73.47
